Time;durP1;ratioP1;P1;durP2;ratioP2;P2;SDS_P1;SDS_P2;PMS_P1;PMS_P2;Temp;Humidity;BMP_temperature;BMP_pressure;BME280_temperature;BME280_humidity;BME280_pressure;Samples;Min_cycle;Max_cycle;Signal;HPM_P1;HPM_P2
2022/06/26 00:02:08;;;;;;;11.95;10.15;;;19.00;99.90;;;;;;5078017;28;20043;-75
2022/06/26 00:04:33;;;;;;;14.85;9.88;;;19.00;99.90;;;;;;5073318;28;20039;-77
2022/06/26 00:07:00;;;;;;;13.00;10.65;;;19.00;99.90;;;;;;5082857;28;20040;-77
2022/06/26 00:09:26;;;;;;;;;;;19.00;99.90;;;;;;5087935;28;20043;-77
2022/06/26 00:11:51;;;;;;;15.25;11.43;;;19.00;99.90;;;;;;5094238;28;19916;-77
2022/06/26 00:14:17;;;;;;;14.70;10.50;;;19.00;99.90;;;;;;5070595;28;20057;-77
2022/06/26 00:16:43;;;;;;;13.18;11.63;;;19.00;99.90;;;;;;5088268;28;20036;-76
2022/06/26 00:19:08;;;;;;;14.27;12.07;;;19.00;99.90;;;;;;5093669;28;20126;-76
2022/06/26 00:21:34;;;;;;;17.33;11.65;;;19.00;99.90;;;;;;5095071;28;20079;-76
2022/06/26 00:24:00;;;;;;;16.27;12.02;;;19.00;99.90;;;;;;5086974;28;20047;-77
2022/06/26 00:26:25;;;;;;;13.70;10.75;;;19.00;99.90;;;;;;5077931;28;20044;-77
2022/06/26 00:28:52;;;;;;;13.15;11.75;;;19.00;99.90;;;;;;5094226;28;20119;-77
2022/06/26 00:31:18;;;;;;;16.65;12.43;;;19.00;99.90;;;;;;5089756;28;20130;-77
2022/06/26 00:33:43;;;;;;;15.02;11.82;;;19.00;99.90;;;;;;5091538;28;20574;-76
2022/06/26 00:36:09;;;;;;;15.63;12.75;;;19.00;99.90;;;;;;5092186;28;20039;-77
2022/06/26 00:38:35;;;;;;;16.42;12.23;;;19.00;99.90;;;;;;5094347;28;20063;-77
2022/06/26 00:41:01;;;;;;;19.27;13.32;;;19.00;99.90;;;;;;5104807;28;20031;-77
2022/06/26 00:43:28;;;;;;;;;;;19.00;99.90;;;;;;5094614;28;20100;-77
2022/06/26 00:45:53;;;;;;;18.52;12.85;;;19.00;99.90;;;;;;5091057;28;19915;-77
2022/06/26 00:48:19;;;;;;;15.48;12.40;;;19.00;99.90;;;;;;5094205;28;20513;-77
2022/06/26 00:50:45;;;;;;;15.75;12.50;;;19.00;99.90;;;;;;5087661;28;20042;-77
2022/06/26 00:53:11;;;;;;;16.35;13.65;;;19.00;99.90;;;;;;5061153;28;20071;-76
2022/06/26 00:55:38;;;;;;;19.48;13.02;;;18.90;99.90;;;;;;5091929;28;20070;-76
2022/06/26 00:58:04;;;;;;;16.40;13.02;;;18.90;99.90;;;;;;5071162;28;20400;-76
2022/06/26 01:00:29;;;;;;;16.58;13.73;;;18.90;99.90;;;;;;5071161;28;20044;-77
2022/06/26 01:02:55;;;;;;;16.38;14.35;;;18.90;99.90;;;;;;5072860;28;20097;-75
2022/06/26 01:05:21;;;;;;;15.02;13.45;;;18.90;99.90;;;;;;5073729;28;20522;-75
2022/06/26 01:07:47;;;;;;;18.88;14.77;;;18.90;99.90;;;;;;5081497;28;20134;-76
2022/06/26 01:10:13;;;;;;;;;;;18.90;99.90;;;;;;5057096;28;20133;-76
2022/06/26 01:12:38;;;;;;;19.45;14.75;;;18.90;99.90;;;;;;5073119;28;20473;-77
2022/06/26 01:15:08;;;;;;;20.88;15.00;;;18.80;99.90;;;;;;5048806;28;20040;-77
2022/06/26 01:17:34;;;;;;;16.13;14.38;;;18.60;99.90;;;;;;5068030;28;20044;-77
2022/06/26 01:20:00;;;;;;;;;;;18.80;99.90;;;;;;5073334;28;20396;-77
2022/06/26 01:22:27;;;;;;;25.13;16.42;;;18.90;99.90;;;;;;5071558;28;19920;-77
2022/06/26 01:24:53;;;;;;;19.98;15.43;;;18.80;99.90;;;;;;5066969;28;20039;-77
2022/06/26 01:27:19;;;;;;;20.88;14.90;;;18.80;99.90;;;;;;5070573;28;20036;-76
2022/06/26 01:29:44;;;;;;;22.73;15.35;;;18.80;99.90;;;;;;5044640;28;20048;-76
2022/06/26 01:32:10;;;;;;;22.02;14.80;;;18.70;99.90;;;;;;5083711;28;20036;-77
2022/06/26 01:34:36;;;;;;;17.30;14.77;;;18.60;99.90;;;;;;5072755;28;20142;-78
2022/06/26 01:37:02;;;;;;;21.40;14.63;;;18.60;99.90;;;;;;5057005;28;20039;-77
2022/06/26 01:39:27;;;;;;;20.52;14.85;;;18.50;99.90;;;;;;5064400;28;20040;-76
2022/06/26 01:41:53;;;;;;;17.15;14.15;;;18.50;99.90;;;;;;5072152;28;20114;-77
2022/06/26 01:44:19;;;;;;;22.20;15.02;;;18.50;99.90;;;;;;5025261;28;20048;-76
2022/06/26 01:46:45;;;;;;;17.70;13.52;;;18.40;99.90;;;;;;5070099;28;20134;-77
2022/06/26 01:49:10;;;;;;;19.33;14.27;;;18.40;99.90;;;;;;5072671;28;20123;-77
2022/06/26 01:51:36;;;;;;;20.15;14.80;;;18.40;99.90;;;;;;5062660;28;20043;-77
2022/06/26 01:54:02;;;;;;;17.58;13.80;;;18.40;99.90;;;;;;5052681;28;20048;-77
2022/06/26 01:56:28;;;;;;;16.77;13.60;;;18.30;99.90;;;;;;5070402;28;20086;-77
2022/06/26 01:58:54;;;;;;;19.10;12.43;;;18.30;99.90;;;;;;5065120;28;20044;-77
2022/06/26 02:01:20;;;;;;;19.83;14.07;;;18.30;99.90;;;;;;5055378;28;20039;-77
2022/06/26 02:03:45;;;;;;;17.08;12.30;;;18.40;99.90;;;;;;5050591;28;20036;-77
2022/06/26 02:06:11;;;;;;;24.98;12.55;;;18.40;99.90;;;;;;5044352;28;20043;-77
2022/06/26 02:08:37;;;;;;;15.00;12.40;;;18.40;99.90;;;;;;5064799;28;20047;-76
2022/06/26 02:13:49;;;;;;;17.88;11.55;;;18.40;99.90;;;;;;5073930;28;20209;-77
2022/06/26 02:16:28;;;;;;;17.63;12.10;;;18.40;99.90;;;;;;5062297;28;20040;-76
2022/06/26 02:18:56;;;;;;;15.57;11.48;;;18.40;99.90;;;;;;5067485;28;20036;-77
2022/06/26 02:21:27;;;;;;;13.93;10.88;;;18.40;99.90;;;;;;5055495;28;20036;-77
2022/06/26 02:23:54;;;;;;;14.95;12.07;;;18.40;99.90;;;;;;5066499;28;20044;-78
2022/06/26 02:26:20;;;;;;;17.75;12.25;;;18.50;99.90;;;;;;5086618;28;20041;-76
2022/06/26 02:28:46;;;;;;;;;;;18.50;99.90;;;;;;5072349;28;20055;-76
2022/06/26 02:31:12;;;;;;;23.20;14.32;;;18.50;99.90;;;;;;5071637;28;19930;-76
2022/06/26 02:33:38;;;;;;;17.90;13.32;;;18.50;99.90;;;;;;5083297;28;20428;-76
2022/06/26 02:36:06;;;;;;;17.38;13.32;;;18.50;99.90;;;;;;5068498;28;20050;-77
2022/06/26 02:38:32;;;;;;;21.10;13.52;;;18.40;99.90;;;;;;5071903;28;20059;-77
2022/06/26 02:40:58;;;;;;;;;;;18.40;99.90;;;;;;5045808;28;20495;-76
2022/06/26 02:43:24;;;;;;;23.13;13.68;;;18.40;99.90;;;;;;5071605;28;19920;-76
2022/06/26 02:45:55;;;;;;;25.88;13.32;;;18.30;99.90;;;;;;5071080;28;20518;-74
2022/06/26 02:48:21;;;;;;;16.40;11.68;;;18.30;99.90;;;;;;5088579;28;20058;-75
2022/06/26 02:50:47;;;;;;;12.80;9.40;;;18.30;99.90;;;;;;5071662;28;20472;-76
2022/06/26 02:53:14;;;;;;;8.18;7.28;;;18.20;99.90;;;;;;5066307;28;20139;-75
2022/06/26 02:55:39;;;;;;;10.20;7.25;;;18.20;99.90;;;;;;5070740;28;20040;-74
2022/06/26 02:58:05;;;;;;;7.22;5.97;;;18.10;99.90;;;;;;5086913;28;20043;-74
2022/06/26 03:00:31;;;;;;;8.10;5.97;;;18.00;99.90;;;;;;5070589;28;20510;-75
2022/06/26 03:02:59;;;;;;;10.18;6.22;;;17.90;99.90;;;;;;5050716;28;20040;-76
2022/06/26 03:05:25;;;;;;;7.20;5.97;;;17.90;99.90;;;;;;5070322;28;20043;-75
2022/06/26 03:07:51;;;;;;;7.65;5.93;;;17.90;99.90;;;;;;5053154;28;20036;-76
2022/06/26 03:10:16;;;;;;;10.45;5.88;;;17.90;99.90;;;;;;5053829;28;20131;-76
2022/06/26 03:12:44;;;;;;;10.05;6.35;;;17.80;99.90;;;;;;5053523;28;20062;-76
2022/06/26 03:15:09;;;;;;;8.50;6.28;;;17.80;99.90;;;;;;5083238;28;20510;-76
2022/06/26 03:17:35;;;;;;;7.95;6.35;;;17.80;99.90;;;;;;5070500;28;20086;-76
2022/06/26 03:20:01;;;;;;;8.98;6.75;;;17.80;99.90;;;;;;5069928;28;20059;-76
2022/06/26 03:22:26;;;;;;;10.00;6.88;;;17.80;99.90;;;;;;5070657;28;20093;-76
2022/06/26 03:24:52;;;;;;;10.02;7.10;;;17.80;99.90;;;;;;5069702;28;20044;-76
2022/06/26 03:27:18;;;;;;;9.10;6.93;;;17.80;99.90;;;;;;5070176;28;20036;-77
2022/06/26 03:29:43;;;;;;;8.93;6.47;;;17.80;99.90;;;;;;5070035;28;20044;-77
2022/06/26 03:32:09;;;;;;;10.75;6.93;;;17.80;99.90;;;;;;5072002;28;20032;-77
2022/06/26 03:34:35;;;;;;;11.02;6.82;;;17.80;99.90;;;;;;5068900;28;20504;-77
2022/06/26 03:37:00;;;;;;;9.90;6.10;;;17.80;99.90;;;;;;5073277;28;20492;-77
2022/06/26 03:39:26;;;;;;;10.85;6.97;;;17.70;99.90;;;;;;5072505;28;20380;-77
2022/06/26 03:42:00;;;;;;;8.82;6.68;;;17.70;99.90;;;;;;5072547;28;20040;-77
2022/06/26 03:44:29;;;;;;;8.95;6.55;;;17.70;99.90;;;;;;5073609;28;20047;-77
2022/06/26 03:46:56;;;;;;;9.82;6.90;;;17.70;99.90;;;;;;5073080;28;20043;-77
2022/06/26 03:49:23;;;;;;;7.85;6.50;;;17.60;99.90;;;;;;5073473;28;20060;-75
2022/06/26 03:51:49;;;;;;;10.38;6.97;;;17.60;99.90;;;;;;5073373;28;20044;-77
2022/06/26 03:54:15;;;;;;;10.55;5.88;;;17.60;99.90;;;;;;5063262;28;20041;-77
2022/06/26 03:56:40;;;;;;;7.87;6.27;;;17.60;99.90;;;;;;5052103;28;1087696;-76
2022/06/26 03:59:07;;;;;;;9.98;6.57;;;17.60;99.90;;;;;;5057969;28;20043;-76
2022/06/26 04:01:32;;;;;;;8.25;5.72;;;17.60;99.90;;;;;;5074746;28;20043;-76
2022/06/26 04:03:58;;;;;;;8.13;5.07;;;17.60;99.90;;;;;;5072157;28;20035;-77
2022/06/26 04:06:24;;;;;;;7.50;5.50;;;17.50;99.90;;;;;;5074466;28;20075;-77
2022/06/26 04:08:49;;;;;;;9.05;6.07;;;17.50;99.90;;;;;;5074542;28;20138;-77
2022/06/26 04:11:16;;;;;;;7.72;5.80;;;17.50;99.90;;;;;;5069393;28;20091;-77
2022/06/26 04:13:42;;;;;;;;;;;17.50;99.90;;;;;;5050705;28;20039;-77
2022/06/26 04:16:08;;;;;;;8.32;5.28;;;17.50;99.90;;;;;;5057110;28;19923;-77
2022/06/26 04:18:34;;;;;;;8.13;5.38;;;17.50;99.90;;;;;;5074224;28;20036;-75
2022/06/26 04:20:59;;;;;;;;;;;17.50;99.90;;;;;;5069556;28;20036;-76
2022/06/26 04:23:25;;;;;;;7.13;4.78;;;17.60;99.90;;;;;;5066973;28;19939;-76
2022/06/26 04:25:51;;;;;;;6.65;4.75;;;17.60;99.90;;;;;;5071654;28;20116;-77
2022/06/26 04:28:17;;;;;;;8.45;4.88;;;17.60;99.90;;;;;;5074265;28;20047;-77
2022/06/26 04:30:42;;;;;;;6.22;4.75;;;17.60;99.90;;;;;;5073712;28;20040;-76
2022/06/26 04:33:08;;;;;;;6.07;4.57;;;17.70;99.90;;;;;;5068638;28;20044;-76
2022/06/26 04:35:35;;;;;;;7.18;4.70;;;17.70;99.90;;;;;;5074054;28;20120;-77
2022/06/26 04:38:01;;;;;;;7.13;4.93;;;17.70;99.90;;;;;;5091679;28;20373;-77
2022/06/26 04:40:27;;;;;;;7.82;4.85;;;17.70;99.90;;;;;;5086068;28;20050;-77
2022/06/26 04:42:53;;;;;;;5.95;4.45;;;17.80;99.90;;;;;;5073351;28;20048;-77
2022/06/26 04:45:19;;;;;;;6.40;4.90;;;17.80;99.90;;;;;;5073630;28;20075;-77
2022/06/26 04:47:45;;;;;;;5.93;5.03;;;17.80;99.90;;;;;;5057081;28;20163;-76
2022/06/26 04:50:11;;;;;;;6.25;4.43;;;17.80;99.90;;;;;;5056906;28;20499;-76
2022/06/26 04:52:36;;;;;;;7.47;4.70;;;17.80;99.90;;;;;;5052286;28;20039;-76
2022/06/26 04:55:03;;;;;;;6.03;4.35;;;17.80;99.90;;;;;;5070720;28;20127;-77
2022/06/26 04:57:29;;;;;;;5.90;4.22;;;17.80;99.90;;;;;;5073415;28;20044;-76
2022/06/26 04:59:54;;;;;;;6.88;4.60;;;17.90;99.90;;;;;;5073538;28;20439;-77
2022/06/26 05:02:20;;;;;;;5.90;4.43;;;17.80;99.90;;;;;;5090140;28;20044;-77
2022/06/26 05:04:46;;;;;;;6.85;4.60;;;17.80;99.90;;;;;;5071279;28;20036;-77
2022/06/26 05:07:12;;;;;;;7.57;4.78;;;17.80;99.90;;;;;;5073257;28;20131;-76
2022/06/26 05:09:37;;;;;;;5.43;4.30;;;17.90;99.90;;;;;;5056810;28;20044;-76
2022/06/26 05:12:04;;;;;;;5.95;4.47;;;17.90;99.90;;;;;;5048472;28;20044;-77
2022/06/26 05:14:29;;;;;;;6.55;4.53;;;17.80;99.90;;;;;;5060329;28;20033;-77
2022/06/26 05:16:55;;;;;;;5.85;4.43;;;17.90;99.90;;;;;;5072342;28;20387;-77
2022/06/26 05:19:21;;;;;;;5.10;4.32;;;17.90;99.90;;;;;;5070210;28;20044;-76
2022/06/26 05:21:46;;;;;;;5.10;4.00;;;18.00;99.90;;;;;;5072985;28;20051;-77
2022/06/26 05:24:12;;;;;;;5.00;4.10;;;18.00;99.90;;;;;;5056224;28;20500;-77
2022/06/26 05:26:39;;;;;;;5.32;4.30;;;18.10;99.90;;;;;;5035156;28;20035;-77
2022/06/26 05:29:05;;;;;;;5.35;4.10;;;18.20;99.90;;;;;;5072667;28;20058;-77
2022/06/26 05:31:31;;;;;;;5.50;3.70;;;18.30;99.90;;;;;;5073158;28;20217;-77
2022/06/26 05:33:56;;;;;;;5.53;4.13;;;18.30;99.90;;;;;;5071094;28;20044;-76
2022/06/26 05:36:22;;;;;;;4.85;3.80;;;18.40;99.90;;;;;;5064014;28;20048;-76
2022/06/26 05:38:48;;;;;;;5.32;4.40;;;18.30;99.90;;;;;;5072597;28;20028;-76
2022/06/26 05:41:13;;;;;;;6.70;4.85;;;18.20;99.90;;;;;;5072698;28;20127;-76
2022/06/26 05:43:41;;;;;;;9.35;5.63;;;18.30;99.90;;;;;;5053813;28;20048;-76
2022/06/26 05:46:07;;;;;;;8.02;5.72;;;18.20;99.90;;;;;;5072179;28;20457;-76
2022/06/26 05:48:32;;;;;;;7.28;5.93;;;18.20;99.90;;;;;;5072738;28;20043;-77
2022/06/26 05:50:58;;;;;;;7.65;5.68;;;18.20;99.90;;;;;;5072746;28;20039;-76
2022/06/26 05:53:24;;;;;;;6.13;5.50;;;18.20;99.90;;;;;;5072334;28;20050;-77
2022/06/26 05:55:49;;;;;;;6.88;5.60;;;18.20;99.90;;;;;;5071774;28;20067;-77
2022/06/26 05:58:15;;;;;;;8.23;5.70;;;18.20;99.90;;;;;;5055602;28;20048;-76
2022/06/26 06:00:41;;;;;;;;;;;18.20;99.90;;;;;;5072645;28;20446;-76
2022/06/26 06:03:07;;;;;;;7.50;6.70;;;18.20;99.90;;;;;;5070783;28;19916;-77
2022/06/26 06:05:33;;;;;;;9.38;7.07;;;18.20;99.90;;;;;;5072049;28;20408;-77
2022/06/26 06:07:59;;;;;;;9.32;7.35;;;18.20;99.90;;;;;;5069836;28;20046;-77
2022/06/26 06:10:25;;;;;;;8.60;7.15;;;18.20;99.90;;;;;;5055266;28;20028;-76
2022/06/26 06:12:51;;;;;;;;;;;18.20;99.90;;;;;;5062513;28;20036;-76
2022/06/26 06:15:19;;;;;;;10.18;7.38;;;18.20;99.90;;;;;;5069042;28;20406;-75
2022/06/26 06:17:44;;;;;;;11.43;8.10;;;18.20;99.90;;;;;;5070047;28;20048;-76
2022/06/26 06:20:13;;;;;;;12.35;9.10;;;18.20;99.90;;;;;;5070509;28;20039;-76
2022/06/26 06:22:53;;;;;;;10.40;8.75;;;18.20;99.90;;;;;;5072132;28;20032;-76
2022/06/26 06:25:19;;;;;;;12.52;9.00;;;18.20;99.90;;;;;;5071831;28;20094;-76
2022/06/26 06:27:45;;;;;;;11.95;9.80;;;18.20;99.90;;;;;;5071872;28;20039;-76
2022/06/26 06:30:12;;;;;;;12.35;9.18;;;18.30;99.90;;;;;;5071854;28;20036;-76
2022/06/26 06:32:40;;;;;;;12.35;9.77;;;18.30;99.90;;;;;;5055111;28;20039;-76
2022/06/26 06:35:07;;;;;;;12.23;9.27;;;18.30;99.90;;;;;;5071125;28;20052;-77
2022/06/26 06:37:33;;;;;;;15.18;10.73;;;18.40;99.90;;;;;;5055108;28;20107;-77
2022/06/26 06:39:58;;;;;;;15.30;11.00;;;18.50;99.90;;;;;;5081523;28;20483;-77
2022/06/26 06:42:24;;;;;;;12.85;10.10;;;18.50;99.90;;;;;;5071494;28;20110;-77
2022/06/26 06:44:50;;;;;;;12.63;10.15;;;18.70;99.90;;;;;;5088429;28;20479;-77
2022/06/26 06:47:16;;;;;;;14.00;10.82;;;18.80;99.90;;;;;;5071233;28;20047;-77
2022/06/26 06:49:42;;;;;;;12.82;10.80;;;18.90;99.90;;;;;;5071528;28;20044;-77
2022/06/26 06:52:08;;;;;;;14.02;12.30;;;19.00;99.90;;;;;;5059134;28;20518;-77
2022/06/26 06:54:34;;;;;;;15.50;11.57;;;19.10;99.90;;;;;;5071776;28;20083;-77
2022/06/26 06:57:00;;;;;;;15.63;13.45;;;19.10;99.90;;;;;;5101234;28;20083;-76
2022/06/26 06:59:26;;;;;;;17.33;12.10;;;19.10;99.90;;;;;;5073510;28;20051;-77
2022/06/26 07:01:52;;;;;;;15.20;12.18;;;19.00;99.90;;;;;;5080233;28;20169;-77
2022/06/26 07:04:18;;;;;;;17.58;13.10;;;19.00;99.90;;;;;;5055601;28;20472;-77
2022/06/26 07:06:45;;;;;;;16.70;13.65;;;19.00;99.90;;;;;;5054360;28;20047;-77
2022/06/26 07:09:11;;;;;;;15.48;13.05;;;19.00;99.90;;;;;;5073483;28;20111;-76
2022/06/26 07:11:36;;;;;;;15.48;13.43;;;19.10;99.90;;;;;;5055913;28;20535;-77
2022/06/26 07:14:02;;;;;;;16.38;14.50;;;19.20;99.90;;;;;;5073751;28;20036;-78
2022/06/26 07:16:28;;;;;;;17.80;14.50;;;19.20;99.90;;;;;;5043659;28;20079;-77
2022/06/26 07:18:54;;;;;;;21.10;13.50;;;19.30;99.90;;;;;;5073660;28;20452;-77
2022/06/26 07:21:20;;;;;;;15.60;13.80;;;19.40;99.90;;;;;;5097483;28;20051;-77
2022/06/26 07:23:46;;;;;;;17.88;14.75;;;19.40;99.90;;;;;;5071401;28;20075;-77
2022/06/26 07:26:11;;;;;;;17.60;13.23;;;19.40;99.90;;;;;;5073904;28;20073;-76
2022/06/26 07:28:37;;;;;;;17.67;13.77;;;19.50;99.90;;;;;;5105007;28;20391;-76
2022/06/26 07:31:03;;;;;;;16.92;13.90;;;19.60;99.90;;;;;;5075154;28;20036;-76
2022/06/26 07:36:13;;;;;;;16.63;14.57;;;19.70;99.90;;;;;;5065836;28;20062;-78
2022/06/26 07:38:39;;;;;;;19.83;15.30;;;19.80;99.90;;;;;;5074952;28;20491;-78
2022/06/26 07:41:05;;;;;;;20.77;15.40;;;19.80;99.90;;;;;;5074455;28;20044;-79
2022/06/26 07:43:31;;;;;;;19.40;15.07;;;19.80;99.90;;;;;;5054786;28;20046;-79
2022/06/26 07:45:57;;;;;;;19.25;16.20;;;19.90;99.90;;;;;;5078047;28;20414;-78
2022/06/26 07:48:23;;;;;;;20.65;15.70;;;20.20;99.90;;;;;;5070874;28;20035;-78
2022/06/26 07:50:49;;;;;;;18.77;15.70;;;20.40;99.90;;;;;;5073544;28;20442;-78
2022/06/26 07:53:14;;;;;;;17.52;14.68;;;20.50;99.90;;;;;;5057141;28;20040;-86
2022/06/26 07:55:41;;;;;;;21.83;14.90;;;20.80;99.90;;;;;;5072998;28;20036;-78
2022/06/26 07:58:06;;;;;;;15.52;12.70;;;21.10;99.90;;;;;;5089123;28;20040;-79
2022/06/26 08:00:32;;;;;;;15.07;10.80;;;21.50;99.90;;;;;;5078988;28;20509;-79
2022/06/26 08:03:06;;;;;;;13.68;10.85;;;21.70;99.90;;;;;;5079075;28;20488;-79
2022/06/26 08:05:31;;;;;;;13.23;10.13;;;22.10;99.90;;;;;;5087918;28;20511;-79
2022/06/26 08:07:57;;;;;;;10.38;9.15;;;22.30;99.90;;;;;;5085912;28;20078;-81
2022/06/26 08:10:23;;;;;;;12.15;9.02;;;22.70;99.90;;;;;;5086710;28;20032;-80
2022/06/26 08:12:48;;;;;;;10.48;8.23;;;23.00;99.90;;;;;;5060706;28;20033;-80
2022/06/26 08:15:14;;;;;;;;;;;23.30;99.90;;;;;;5080099;28;20039;-78
2022/06/26 08:17:39;;;;;;;9.35;7.65;;;23.50;99.90;;;;;;5104646;28;19938;-79
2022/06/26 08:20:05;;;;;;;;;;;23.70;99.90;;;;;;5080546;28;20039;-79
2022/06/26 08:22:31;;;;;;;10.25;8.05;;;23.90;99.90;;;;;;5103120;28;20401;-79
2022/06/26 08:24:57;;;;;;;11.18;8.40;;;24.10;99.90;;;;;;5066806;28;20491;-79
2022/06/26 08:27:23;;;;;;;;;;;24.00;99.90;;;;;;5095071;28;20039;-79
2022/06/26 08:29:49;;;;;;;10.50;8.07;;;23.70;99.90;;;;;;5095774;28;19923;-79
2022/06/26 08:32:14;;;;;;;;;;;23.30;99.90;;;;;;5083780;28;20474;-76
2022/06/26 08:34:41;;;;;;;9.25;8.02;;;23.10;99.90;;;;;;5099075;28;19926;-79
2022/06/26 08:37:07;;;;;;;11.32;8.50;;;23.10;99.90;;;;;;5094571;28;20032;-80
2022/06/26 08:39:35;;;;;;;;;;;23.30;99.90;;;;;;5094239;28;20038;-79
2022/06/26 08:42:02;;;;;;;12.98;9.50;;;23.70;99.90;;;;;;5088405;28;20002;-79
2022/06/26 08:44:28;;;;;;;12.50;8.95;;;24.00;99.90;;;;;;5077654;28;20079;-79
2022/06/26 08:46:55;;;;;;;;;;;24.10;99.90;;;;;;5092456;28;20093;-80
2022/06/26 08:49:23;;;;;;;11.27;9.27;;;24.40;99.90;;;;;;5093157;28;19916;-81
2022/06/26 08:51:50;;;;;;;6.32;5.10;;;24.40;99.90;;;;;;5057221;28;20063;-78
2022/06/26 08:54:17;;;;;;;5.65;5.07;;;24.40;99.90;;;;;;5095009;28;20063;-76
2022/06/26 08:56:48;;;;;;;7.47;5.18;;;24.40;99.90;;;;;;5070966;28;20102;-78
2022/06/26 08:59:16;;;;;;;5.82;4.78;;;24.40;99.90;;;;;;5076784;28;20031;-76
2022/06/26 09:01:42;;;;;;;7.10;5.80;;;24.50;99.90;;;;;;5113664;28;20586;-77
2022/06/26 09:04:09;;;;;;;7.13;5.47;;;24.60;99.90;;;;;;5067897;28;20031;-79
2022/06/26 09:06:37;;;;;;;8.27;6.55;;;24.90;99.90;;;;;;5079432;28;20105;-79
2022/06/26 09:09:16;;;;;;;6.72;5.55;;;25.20;99.90;;;;;;5084191;28;20036;-80
2022/06/26 09:11:42;;;;;;;6.15;3.33;;;25.40;99.90;;;;;;5092786;28;20043;-79
2022/06/26 09:14:09;;;;;;;2.83;1.60;;;25.60;99.90;;;;;;5092426;28;20040;-80
2022/06/26 09:16:38;;;;;;;4.72;1.83;;;25.70;99.90;;;;;;5063530;28;20040;-77
2022/06/26 09:19:16;;;;;;;3.70;1.80;;;25.60;99.90;;;;;;5089668;28;20055;-79
2022/06/26 09:21:43;;;;;;;3.78;2.22;;;25.70;99.90;;;;;;5070052;28;20033;-77
2022/06/26 09:24:14;;;;;;;2.42;2.15;;;25.80;99.90;;;;;;5096660;28;20047;-77
2022/06/26 09:26:41;;;;;;;4.38;2.80;;;25.90;99.90;;;;;;5107616;28;20036;-80
2022/06/26 09:29:11;;;;;;;6.10;2.53;;;26.20;99.90;;;;;;5089304;28;20047;-77
2022/06/26 09:31:38;;;;;;;4.47;2.33;;;26.40;99.90;;;;;;5090833;28;20075;-77
2022/06/26 09:34:05;;;;;;;7.60;3.28;;;26.00;99.90;;;;;;5097786;28;20381;-76
2022/06/26 09:36:31;;;;;;;4.82;2.88;;;25.90;99.90;;;;;;5107122;28;20031;-77
2022/06/26 09:38:56;;;;;;;4.10;2.95;;;25.80;99.90;;;;;;5090213;28;20036;-76
2022/06/26 09:41:34;;;;;;;;;;;25.70;99.90;;;;;;5083278;28;20075;-76
2022/06/26 09:44:00;;;;;;;;;;;25.70;99.90;;;;;;5066718;28;19969;-76
2022/06/26 09:46:31;;;;;;;4.43;2.63;;;25.50;99.90;;;;;;5084739;28;20952;-74
2022/06/26 09:48:58;;;;;;;3.90;2.92;;;25.10;99.90;;;;;;5080984;28;20040;-79
2022/06/26 09:51:24;;;;;;;4.18;2.80;;;25.00;99.90;;;;;;5104871;28;20043;-77
2022/06/26 09:53:51;;;;;;;3.85;2.40;;;24.90;99.90;;;;;;5075825;28;20047;-76
2022/06/26 09:56:17;;;;;;;3.50;2.17;;;25.00;99.90;;;;;;5079912;28;20511;-77
2022/06/26 09:58:43;;;;;;;2.78;2.30;;;25.40;99.90;;;;;;5061957;28;20036;-75
2022/06/26 10:06:43;;;;;;;3.17;1.90;;;25.90;99.90;;;;;;5086865;28;20036;-77
2022/06/26 10:09:10;;;;;;;8.07;1.77;;;26.10;99.90;;;;;;5093194;28;20051;-81
2022/06/26 10:11:37;;;;;;;4.05;2.38;;;26.40;99.90;;;;;;5092680;28;20039;-79
2022/06/26 10:14:15;;;;;;;4.18;2.58;;;26.50;99.90;;;;;;5092378;28;20040;-80
2022/06/26 10:17:07;;;;;;;3.33;2.50;;;26.70;99.90;;;;;;5106043;28;20027;-78
2022/06/26 10:19:45;;;;;;;3.45;2.25;;;26.90;99.90;;;;;;5104312;28;20484;-78
2022/06/26 10:22:13;;;;;;;3.00;2.20;;;27.10;99.90;;;;;;5064986;28;20094;-78
2022/06/26 10:24:59;;;;;;;3.20;2.20;;;27.20;99.90;;;;;;5088502;28;20047;-81
2022/06/26 10:27:27;;;;;;;6.00;2.60;;;27.50;99.90;;;;;;5091619;28;20032;-78
2022/06/26 10:30:08;;;;;;;7.00;2.70;;;27.70;99.90;;;;;;5095866;28;20067;-78
2022/06/26 10:32:34;;;;;;;3.72;2.13;;;27.80;99.90;;;;;;5093134;28;20042;-78
2022/06/26 10:35:00;;;;;;;4.07;2.10;;;27.60;99.90;;;;;;5107995;28;20036;-81
2022/06/26 10:37:26;;;;;;;2.50;1.67;;;27.40;99.90;;;;;;5086999;28;20459;-78
2022/06/26 10:39:54;;;;;;;2.75;1.60;;;27.10;99.90;;;;;;5076865;28;20039;-81
2022/06/26 10:45:31;;;;;;;1.98;1.70;;;26.60;99.90;;;;;;5080590;28;20046;-79
2022/06/26 10:48:01;;;;;;;;;;;26.40;99.90;;;;;;5104095;28;20036;-76
2022/06/26 10:50:29;;;;;;;3.55;2.17;;;26.20;99.90;;;;;;5078924;28;19916;-75
2022/06/26 10:53:21;;;;;;;3.10;1.83;;;26.00;99.90;;;;;;5071827;28;20130;-74
2022/06/26 10:55:58;;;;;;;3.80;2.00;;;26.00;99.90;;;;;;5102997;28;20047;-74
2022/06/26 10:58:28;;;;;;;2.92;1.88;;;26.10;99.90;;;;;;5079662;28;20048;-77
2022/06/26 11:00:58;;;;;;;4.03;1.60;;;25.90;99.90;;;;;;5088794;28;20031;-76
2022/06/26 11:03:25;;;;;;;2.45;1.67;;;25.90;99.90;;;;;;5090435;28;20080;-75
2022/06/26 11:05:55;;;;;;;3.83;1.70;;;25.90;99.90;;;;;;5091808;28;20247;-75
2022/06/26 11:08:33;;;;;;;4.13;1.77;;;26.00;99.90;;;;;;5091447;28;20039;-75
2022/06/26 11:11:01;;;;;;;2.80;1.67;;;26.10;99.90;;;;;;5072249;28;20384;-75
2022/06/26 11:13:27;;;;;;;5.97;2.53;;;26.20;99.90;;;;;;5091019;28;20040;-75
2022/06/26 11:15:53;;;;;;;2.83;1.50;;;26.20;99.90;;;;;;5091356;28;20506;-74
2022/06/26 11:18:18;;;;;;;;;;;26.00;99.90;;;;;;5089745;28;20152;-74
2022/06/26 11:20:55;;;;;;;2.53;1.38;;;25.90;99.90;;;;;;5091322;28;20018;-74
2022/06/26 11:23:26;;;;;;;3.28;1.33;;;26.20;99.90;;;;;;5109016;28;20097;-74
2022/06/26 11:25:55;;;;;;;3.20;1.08;;;26.40;99.90;;;;;;5091882;28;20074;-74
2022/06/26 11:28:38;;;;;;;3.25;1.17;;;26.40;99.90;;;;;;5086781;28;20039;-74
2022/06/26 11:31:06;;;;;;;2.70;1.17;;;26.70;99.70;;;;;;5108276;28;20074;-73
2022/06/26 11:33:34;;;;;;;2.03;1.02;;;26.90;99.20;;;;;;5091034;28;20031;-73
2022/06/26 11:36:08;;;;;;;2.47;1.50;;;26.80;99.90;;;;;;5091400;28;20146;-74
2022/06/26 11:38:34;;;;;;;4.13;1.92;;;26.70;99.90;;;;;;5074446;28;20032;-73
2022/06/26 11:41:03;;;;;;;2.75;0.98;;;26.70;99.60;;;;;;5074286;28;20100;-73
2022/06/26 11:43:29;;;;;;;3.67;1.50;;;26.60;99.30;;;;;;5108027;28;20032;-73
2022/06/26 11:46:00;;;;;;;2.92;1.52;;;26.40;99.80;;;;;;5108122;28;20050;-74
2022/06/26 11:48:26;;;;;;;3.17;1.48;;;26.30;99.90;;;;;;5085659;28;20051;-75
2022/06/26 11:50:54;;;;;;;3.47;1.35;;;26.10;99.90;;;;;;5088623;28;20031;-73
2022/06/26 11:53:23;;;;;;;2.20;1.30;;;26.20;99.90;;;;;;5093768;28;20040;-74
2022/06/26 11:55:52;;;;;;;3.75;1.20;;;26.00;99.90;;;;;;5107040;28;20384;-74
2022/06/26 11:58:20;;;;;;;4.43;1.42;;;26.20;99.90;;;;;;5095336;28;20051;-75
2022/06/26 12:00:46;;;;;;;5.38;1.60;;;26.50;99.90;;;;;;5111737;28;20042;-75
2022/06/26 12:03:13;;;;;;;2.08;1.20;;;26.70;99.90;;;;;;5113133;28;20043;-75
2022/06/26 12:05:42;;;;;;;3.28;1.60;;;26.60;99.90;;;;;;5094937;28;20078;-75
2022/06/26 12:08:18;;;;;;;2.72;1.50;;;26.60;99.60;;;;;;5094968;28;20123;-75
2022/06/26 12:10:51;;;;;;;3.45;1.48;;;26.20;99.30;;;;;;5094725;28;20103;-75
2022/06/26 12:13:29;;;;;;;4.25;1.73;;;26.00;99.90;;;;;;5112023;28;20069;-74
2022/06/26 12:16:03;;;;;;;3.08;1.40;;;26.10;99.80;;;;;;5090756;28;20043;-74
2022/06/26 12:18:29;;;;;;;2.25;1.30;;;26.10;99.80;;;;;;5103436;28;20035;-74
2022/06/26 12:20:54;;;;;;;3.78;1.58;;;26.00;99.90;;;;;;5094915;28;20050;-75
2022/06/26 12:23:33;;;;;;;5.43;1.55;;;25.90;99.90;;;;;;5094779;28;20043;-75
2022/06/26 12:26:12;;;;;;;5.18;1.67;;;26.10;99.90;;;;;;5094765;28;20494;-74
2022/06/26 12:28:46;;;;;;;4.00;1.60;;;26.10;99.20;;;;;;5094174;28;20135;-74
2022/06/26 12:31:14;;;;;;;3.85;1.30;;;26.00;99.80;;;;;;5107765;28;20035;-74
2022/06/26 12:33:39;;;;;;;3.58;1.50;;;26.20;99.70;;;;;;5094241;28;20035;-75
2022/06/26 12:36:05;;;;;;;3.38;1.33;;;26.40;99.30;;;;;;5111514;28;20081;-74
2022/06/26 12:38:33;;;;;;;;;;;26.40;98.90;;;;;;5113033;28;20048;-74
2022/06/26 12:40:58;;;;;;;3.25;1.10;;;26.30;99.50;;;;;;5112563;28;19915;-75
2022/06/26 12:43:24;;;;;;;2.58;1.40;;;26.10;99.90;;;;;;5094473;28;20089;-74
2022/06/26 12:45:50;;;;;;;3.47;1.20;;;26.10;99.90;;;;;;5112045;28;20375;-73
2022/06/26 12:48:15;;;;;;;;;;;26.20;99.90;;;;;;5094570;28;20070;-73
2022/06/26 12:50:41;;;;;;;2.53;0.93;;;26.20;99.40;;;;;;5091436;28;19923;-74
2022/06/26 12:53:08;;;;;;;2.67;1.30;;;26.00;99.60;;;;;;5094058;28;20035;-74
2022/06/26 12:55:34;;;;;;;4.93;1.83;;;25.90;98.80;;;;;;5092089;28;20043;-75
2022/06/26 12:58:00;;;;;;;2.67;1.38;;;25.90;99.20;;;;;;5090926;28;20412;-74
2022/06/26 13:00:25;;;;;;;;;;;25.90;99.80;;;;;;5092618;28;20040;-74